CES7630 ZUXC-PHNL
Flight info
| Callsign | CES7630 |
|---|---|
| Flight time | N/A |
| Altitude | 35100 |
| Route | BOPTU W162 KAKMI W144 IGNAK W179 WFX B213 ESPEG V154 SNF W269 OLPOV B213 WHA R343 PK A593 AKARA/K0911F351 A593 LAMEN/N0492F351 A593 SADLI Y590 BEDAR Y591 FUE Y23 KASTE Y81 TASOT Y57 LIGNI Y816 IPROS Y830 LAPIL OTR13 SEALS DCT 34N153E DCT 34N159E DCT 33N166E DCT 31N173E DCT 29N179E DCT 27N174W DCT 25N168W DCT CANON DCT CANON |
| Aircraft | MD11/H-SDE1E2E3FGHIJ2J3J4J5M1RWXY/LB1D1 |
Departure
| Time | 2026-04-16 11:14 |
|---|---|
| Airport | Xichang Qingshan Airport (ZUXC) |
Arrival
| Time | N/A |
|---|---|
| Airport | Daniel K. Inouye International Airport (PHNL) |
| Time | Latitude | Longitude | Altitude | Speed | Heading |
|---|---|---|---|---|---|
| 2026-04-16 10:57 | 27.98292 | 102.18647 | 5089 ft | 0 kts | 88° |
| 2026-04-16 11:01 | 27.98292 | 102.18645 | 5089 ft | 2 kts | 88° |
| 2026-04-16 11:01 | 27.98292 | 102.18615 | 5089 ft | 4 kts | 88° |
| 2026-04-16 11:02 | 27.98291 | 102.18591 | 5089 ft | 4 kts | 67° |
| 2026-04-16 11:02 | 27.98284 | 102.18576 | 5090 ft | 4 kts | 10° |
| 2026-04-16 11:02 | 27.98255 | 102.18582 | 5090 ft | 4 kts | 340° |
| 2026-04-16 11:02 | 27.98230 | 102.18591 | 5090 ft | 4 kts | 354° |
| 2026-04-16 11:03 | 27.98223 | 102.18592 | 5090 ft | 0 kts | 0° |
| 2026-04-16 11:05 | 27.98224 | 102.18592 | 5090 ft | 1 kts | 0° |
| 2026-04-16 11:06 | 27.98249 | 102.18591 | 5089 ft | 6 kts | 359° |
| 2026-04-16 11:06 | 27.98320 | 102.18589 | 5089 ft | 8 kts | 358° |
| 2026-04-16 11:06 | 27.98361 | 102.18588 | 5089 ft | 9 kts | 358° |
| 2026-04-16 11:06 | 27.98427 | 102.18585 | 5089 ft | 10 kts | 358° |
| 2026-04-16 11:07 | 27.98500 | 102.18582 | 5089 ft | 12 kts | 358° |
| 2026-04-16 11:07 | 27.98590 | 102.18579 | 5089 ft | 14 kts | 358° |
| 2026-04-16 11:07 | 27.98686 | 102.18576 | 5089 ft | 14 kts | 358° |
| 2026-04-16 11:07 | 27.98784 | 102.18571 | 5089 ft | 14 kts | 358° |
| 2026-04-16 11:08 | 27.98886 | 102.18567 | 5089 ft | 15 kts | 358° |
| 2026-04-16 11:08 | 27.98990 | 102.18564 | 5090 ft | 15 kts | 358° |
| 2026-04-16 11:08 | 27.99095 | 102.18560 | 5090 ft | 15 kts | 358° |
| 2026-04-16 11:08 | 27.99199 | 102.18556 | 5090 ft | 15 kts | 357° |
| 2026-04-16 11:09 | 27.99344 | 102.18550 | 5090 ft | 16 kts | 358° |
| 2026-04-16 11:09 | 27.99418 | 102.18547 | 5090 ft | 16 kts | 358° |
| 2026-04-16 11:09 | 27.99531 | 102.18543 | 5090 ft | 16 kts | 358° |
| 2026-04-16 11:09 | 27.99645 | 102.18539 | 5090 ft | 17 kts | 358° |
| 2026-04-16 11:10 | 27.99803 | 102.18533 | 5089 ft | 18 kts | 358° |
| 2026-04-16 11:10 | 27.99886 | 102.18530 | 5089 ft | 18 kts | 358° |
| 2026-04-16 11:10 | 28.00010 | 102.18524 | 5089 ft | 18 kts | 358° |
| 2026-04-16 11:10 | 28.00134 | 102.18519 | 5089 ft | 18 kts | 358° |
| 2026-04-16 11:11 | 28.00258 | 102.18514 | 5089 ft | 18 kts | 358° |
| 2026-04-16 11:11 | 28.00386 | 102.18509 | 5089 ft | 18 kts | 358° |
| 2026-04-16 11:11 | 28.00465 | 102.18504 | 5090 ft | 8 kts | 352° |
| 2026-04-16 11:11 | 28.00493 | 102.18472 | 5090 ft | 4 kts | 288° |
| 2026-04-16 11:12 | 28.00497 | 102.18442 | 5091 ft | 4 kts | 279° |
| 2026-04-16 11:12 | 28.00501 | 102.18414 | 5091 ft | 4 kts | 278° |
| 2026-04-16 11:12 | 28.00494 | 102.18382 | 5091 ft | 4 kts | 238° |
| 2026-04-16 11:12 | 28.00467 | 102.18373 | 5091 ft | 5 kts | 181° |
| 2026-04-16 11:13 | 28.00311 | 102.18373 | 5091 ft | 57 kts | 178° |
| 2026-04-16 11:13 | 27.99671 | 102.18401 | 5091 ft | 127 kts | 178° |
| 2026-04-16 11:13 | 27.98590 | 102.18442 | 5092 ft | 179 kts | 178° |
| 2026-04-16 11:13 | 27.97281 | 102.18493 | 5381 ft | 193 kts | 179° |
| 2026-04-16 11:14 | 27.95950 | 102.18552 | 6052 ft | 192 kts | 178° |
| 2026-04-16 11:14 | 27.94614 | 102.18639 | 6670 ft | 193 kts | 177° |
| 2026-04-16 11:14 | 27.93263 | 102.18730 | 7256 ft | 196 kts | 177° |
| 2026-04-16 11:14 | 27.91899 | 102.18817 | 7827 ft | 198 kts | 177° |
| 2026-04-16 11:15 | 27.90535 | 102.18876 | 8348 ft | 201 kts | 182° |
| 2026-04-16 11:15 | 27.89103 | 102.18593 | 8543 ft | 218 kts | 197° |
| 2026-04-16 11:15 | 27.87623 | 102.18022 | 8700 ft | 232 kts | 200° |
| 2026-04-16 11:15 | 27.86044 | 102.17554 | 8868 ft | 237 kts | 182° |
| 2026-04-16 11:16 | 27.84437 | 102.17916 | 9140 ft | 239 kts | 159° |
| 2026-04-16 11:16 | 27.82920 | 102.18703 | 9386 ft | 241 kts | 154° |
| 2026-04-16 11:16 | 27.81411 | 102.19545 | 9648 ft | 242 kts | 154° |
| 2026-04-16 11:16 | 27.79936 | 102.20473 | 9872 ft | 245 kts | 145° |
| 2026-04-16 11:17 | 27.78721 | 102.21856 | 9992 ft | 260 kts | 122° |
| 2026-04-16 11:17 | 27.78112 | 102.23801 | 10129 ft | 271 kts | 94° |
| 2026-04-16 11:17 | 27.78389 | 102.25920 | 10271 ft | 282 kts | 70° |
| 2026-04-16 11:17 | 27.79213 | 102.28023 | 10412 ft | 304 kts | 63° |
| 2026-04-16 11:18 | 27.80225 | 102.30237 | 10554 ft | 330 kts | 62° |
| 2026-04-16 11:18 | 27.81332 | 102.32612 | 10692 ft | 354 kts | 62° |
| 2026-04-16 11:18 | 27.82505 | 102.35151 | 10903 ft | 373 kts | 63° |
| 2026-04-16 11:18 | 27.83703 | 102.37773 | 11599 ft | 378 kts | 63° |
| 2026-04-16 11:19 | 27.84908 | 102.40435 | 12305 ft | 383 kts | 63° |
| 2026-04-16 11:19 | 27.86106 | 102.43099 | 12981 ft | 387 kts | 63° |
| 2026-04-16 11:19 | 27.87329 | 102.45830 | 13641 ft | 392 kts | 63° |
| 2026-04-16 11:19 | 27.88563 | 102.48593 | 14289 ft | 396 kts | 63° |
| 2026-04-16 11:20 | 27.89814 | 102.51388 | 14906 ft | 401 kts | 63° |
| 2026-04-16 11:20 | 27.91083 | 102.54211 | 15504 ft | 405 kts | 63° |
| 2026-04-16 11:20 | 27.92368 | 102.57066 | 16082 ft | 409 kts | 63° |
| 2026-04-16 11:20 | 27.93666 | 102.59945 | 16638 ft | 413 kts | 63° |
| 2026-04-16 11:21 | 27.94961 | 102.62818 | 17174 ft | 417 kts | 63° |
| 2026-04-16 11:21 | 27.96282 | 102.65751 | 17698 ft | 421 kts | 63° |
| 2026-04-16 11:21 | 27.97618 | 102.68719 | 18207 ft | 425 kts | 63° |
| 2026-04-16 11:21 | 27.98964 | 102.71713 | 18696 ft | 429 kts | 63° |
| 2026-04-16 11:22 | 28.00323 | 102.74737 | 19172 ft | 433 kts | 63° |
| 2026-04-16 11:22 | 28.01690 | 102.77781 | 19629 ft | 436 kts | 63° |
| 2026-04-16 11:22 | 28.03070 | 102.80857 | 20072 ft | 440 kts | 63° |
| 2026-04-16 11:22 | 28.04458 | 102.83952 | 20499 ft | 443 kts | 63° |
| 2026-04-16 11:23 | 28.05858 | 102.87077 | 20920 ft | 446 kts | 63° |
| 2026-04-16 11:23 | 28.07267 | 102.90224 | 21329 ft | 450 kts | 63° |
| 2026-04-16 11:23 | 28.08665 | 102.93350 | 21728 ft | 453 kts | 63° |
| 2026-04-16 11:23 | 28.10094 | 102.96547 | 22118 ft | 456 kts | 63° |
| 2026-04-16 11:24 | 28.11530 | 102.99763 | 22502 ft | 459 kts | 63° |
| 2026-04-16 11:24 | 28.12975 | 103.03000 | 22874 ft | 462 kts | 63° |
| 2026-04-16 11:24 | 28.14430 | 103.06264 | 23236 ft | 466 kts | 63° |
| 2026-04-16 11:24 | 28.15895 | 103.09551 | 23593 ft | 469 kts | 63° |
| 2026-04-16 11:25 | 28.17368 | 103.12861 | 23943 ft | 472 kts | 63° |
| 2026-04-16 11:25 | 28.18848 | 103.16187 | 24281 ft | 475 kts | 63° |
| 2026-04-16 11:25 | 28.20338 | 103.19540 | 24615 ft | 477 kts | 63° |
| 2026-04-16 11:25 | 28.21816 | 103.22870 | 24931 ft | 480 kts | 63° |
| 2026-04-16 11:26 | 28.23321 | 103.26260 | 25242 ft | 483 kts | 63° |
| 2026-04-16 11:26 | 28.24834 | 103.29674 | 25543 ft | 486 kts | 63° |
| 2026-04-16 11:26 | 28.26355 | 103.33107 | 25839 ft | 488 kts | 63° |
| 2026-04-16 11:26 | 28.27875 | 103.36562 | 26125 ft | 491 kts | 64° |
| 2026-04-16 11:27 | 28.29399 | 103.40035 | 26400 ft | 493 kts | 64° |
| 2026-04-16 11:27 | 28.30934 | 103.43530 | 26666 ft | 496 kts | 63° |
| 2026-04-16 11:27 | 28.32479 | 103.47041 | 26925 ft | 498 kts | 63° |
| 2026-04-16 11:27 | 28.34032 | 103.50569 | 27171 ft | 501 kts | 63° |
| 2026-04-16 11:28 | 28.35592 | 103.54109 | 27413 ft | 503 kts | 63° |
| 2026-04-16 11:28 | 28.37139 | 103.57623 | 27647 ft | 505 kts | 63° |
| 2026-04-16 11:28 | 28.38712 | 103.61197 | 27872 ft | 507 kts | 63° |
| 2026-04-16 11:28 | 28.40288 | 103.64784 | 28090 ft | 509 kts | 63° |
| 2026-04-16 11:29 | 28.41874 | 103.68396 | 28302 ft | 511 kts | 63° |
| 2026-04-16 11:29 | 28.43462 | 103.72015 | 28510 ft | 513 kts | 64° |
| 2026-04-16 11:29 | 28.45058 | 103.75656 | 28708 ft | 515 kts | 64° |
| 2026-04-16 11:29 | 28.46657 | 103.79308 | 28902 ft | 517 kts | 64° |
| 2026-04-16 11:30 | 28.48253 | 103.82956 | 29406 ft | 508 kts | 64° |
| 2026-04-16 11:30 | 28.49806 | 103.86507 | 30287 ft | 496 kts | 64° |
| 2026-04-16 11:30 | 28.51301 | 103.89930 | 31057 ft | 484 kts | 64° |
| 2026-04-16 11:30 | 28.52779 | 103.93319 | 31786 ft | 471 kts | 64° |
| 2026-04-16 11:31 | 28.54224 | 103.96631 | 32303 ft | 465 kts | 64° |
| 2026-04-16 11:31 | 28.55655 | 103.99918 | 32558 ft | 464 kts | 64° |
| 2026-04-16 11:31 | 28.57085 | 104.03204 | 32753 ft | 463 kts | 64° |
| 2026-04-16 11:31 | 28.58509 | 104.06499 | 32931 ft | 463 kts | 64° |
| 2026-04-16 11:32 | 28.59925 | 104.09787 | 33102 ft | 463 kts | 64° |
| 2026-04-16 11:32 | 28.61344 | 104.13081 | 33266 ft | 463 kts | 64° |
| 2026-04-16 11:32 | 28.62783 | 104.16353 | 33418 ft | 463 kts | 62° |
| 2026-04-16 11:32 | 28.64430 | 104.19503 | 33569 ft | 463 kts | 55° |
| 2026-04-16 11:33 | 28.66422 | 104.22314 | 33711 ft | 462 kts | 45° |
| 2026-04-16 11:33 | 28.68837 | 104.24728 | 33843 ft | 462 kts | 35° |
| 2026-04-16 11:33 | 28.71579 | 104.26624 | 33969 ft | 462 kts | 25° |
| 2026-04-16 11:33 | 28.74561 | 104.27977 | 34094 ft | 461 kts | 16° |
| 2026-04-16 11:34 | 28.77690 | 104.28771 | 34218 ft | 461 kts | 7° |
| 2026-04-16 11:34 | 28.80884 | 104.29011 | 34344 ft | 460 kts | 359° |
| 2026-04-16 11:34 | 28.84082 | 104.28889 | 34470 ft | 460 kts | 356° |
| 2026-04-16 11:34 | 28.87272 | 104.28632 | 34596 ft | 460 kts | 355° |
| 2026-04-16 11:35 | 28.90460 | 104.28355 | 34721 ft | 459 kts | 355° |
| 2026-04-16 11:35 | 28.93602 | 104.28105 | 34844 ft | 459 kts | 356° |
| 2026-04-16 11:35 | 28.96780 | 104.27884 | 35036 ft | 457 kts | 356° |
| 2026-04-16 11:36 | 29.03144 | 104.27502 | 35097 ft | 459 kts | 357° |
| 2026-04-16 11:36 | 29.09551 | 104.27149 | 35101 ft | 462 kts | 357° |
| 2026-04-16 11:37 | 29.15980 | 104.26796 | 35100 ft | 463 kts | 357° |
| 2026-04-16 11:37 | 29.21330 | 104.26500 | 35100 ft | 463 kts | 357° |
| 2026-04-16 11:38 | 29.28796 | 104.26349 | 35100 ft | 462 kts | 4° |
| 2026-04-16 11:38 | 29.35161 | 104.27296 | 35100 ft | 461 kts | 9° |
| 2026-04-16 11:39 | 29.41494 | 104.28485 | 35100 ft | 461 kts | 9° |
| 2026-04-16 11:39 | 29.47797 | 104.29617 | 35100 ft | 462 kts | 8° |
| 2026-04-16 11:40 | 29.54153 | 104.30714 | 35100 ft | 462 kts | 8° |
| 2026-04-16 11:40 | 29.60516 | 104.31799 | 35100 ft | 462 kts | 8° |
| 2026-04-16 11:41 | 29.66876 | 104.32886 | 35100 ft | 462 kts | 8° |
| 2026-04-16 11:41 | 29.73189 | 104.33968 | 35100 ft | 462 kts | 8° |
| 2026-04-16 11:42 | 29.79545 | 104.35058 | 35100 ft | 462 kts | 8° |
| 2026-04-16 11:42 | 29.85900 | 104.36151 | 35100 ft | 462 kts | 8° |
| 2026-04-16 11:43 | 29.92253 | 104.37244 | 35100 ft | 462 kts | 8° |
| 2026-04-16 11:43 | 29.98609 | 104.38339 | 35100 ft | 462 kts | 8° |
| 2026-04-16 11:44 | 30.04924 | 104.39428 | 35100 ft | 462 kts | 8° |
| 2026-04-16 11:44 | 30.11281 | 104.40527 | 35100 ft | 462 kts | 8° |
| 2026-04-16 11:45 | 30.17633 | 104.41635 | 35100 ft | 462 kts | 8° |
| 2026-04-16 11:45 | 30.23991 | 104.42750 | 35100 ft | 462 kts | 8° |
| 2026-04-16 11:46 | 30.30302 | 104.43857 | 35100 ft | 462 kts | 8° |
| 2026-04-16 11:46 | 30.36655 | 104.44971 | 35100 ft | 462 kts | 8° |
| 2026-04-16 11:47 | 30.43011 | 104.46088 | 35100 ft | 462 kts | 8° |
| 2026-04-16 11:47 | 30.49307 | 104.47521 | 35099 ft | 462 kts | 17° |
| 2026-04-16 11:48 | 30.55158 | 104.50538 | 35100 ft | 461 kts | 33° |
| 2026-04-16 11:48 | 30.60021 | 104.55285 | 35100 ft | 461 kts | 48° |
| 2026-04-16 11:49 | 30.63664 | 104.61387 | 35100 ft | 461 kts | 63° |
| 2026-04-16 11:49 | 30.65942 | 104.68334 | 35101 ft | 461 kts | 73° |
| 2026-04-16 11:50 | 30.67667 | 104.75513 | 35100 ft | 462 kts | 75° |
| 2026-04-16 11:50 | 30.69391 | 104.82647 | 35100 ft | 462 kts | 74° |
| 2026-04-16 11:51 | 30.71192 | 104.89822 | 35100 ft | 463 kts | 73° |
| 2026-04-16 11:51 | 30.73015 | 104.96995 | 35100 ft | 463 kts | 73° |
| 2026-04-16 11:52 | 30.74838 | 105.04174 | 35100 ft | 463 kts | 73° |
| 2026-04-16 11:52 | 30.76640 | 105.11299 | 35100 ft | 462 kts | 73° |
| 2026-04-16 11:53 | 30.78449 | 105.18472 | 35100 ft | 462 kts | 74° |
| 2026-04-16 11:53 | 30.80252 | 105.25640 | 35100 ft | 462 kts | 74° |
| 2026-04-16 11:54 | 30.82050 | 105.32809 | 35100 ft | 461 kts | 74° |
| 2026-04-16 11:54 | 30.83843 | 105.39977 | 35100 ft | 462 kts | 74° |
| 2026-04-16 11:55 | 30.85464 | 105.47152 | 35100 ft | 462 kts | 76° |
| 2026-04-16 11:55 | 30.86986 | 105.54418 | 35100 ft | 462 kts | 76° |
| 2026-04-16 11:56 | 30.88509 | 105.61689 | 35100 ft | 462 kts | 76° |
| 2026-04-16 11:56 | 30.90041 | 105.68951 | 35100 ft | 462 kts | 76° |
| 2026-04-16 11:57 | 30.91564 | 105.76168 | 35100 ft | 462 kts | 76° |
| 2026-04-16 11:57 | 30.93093 | 105.83433 | 35100 ft | 462 kts | 76° |
| 2026-04-16 11:58 | 30.94618 | 105.90701 | 35100 ft | 462 kts | 76° |
| 2026-04-16 11:58 | 30.96138 | 105.97972 | 35099 ft | 461 kts | 76° |
| 2026-04-16 11:59 | 30.97206 | 106.05270 | 35100 ft | 460 kts | 85° |
| 2026-04-16 11:59 | 30.97636 | 106.12704 | 35100 ft | 460 kts | 87° |
| 2026-04-16 12:00 | 30.97995 | 106.20143 | 35100 ft | 460 kts | 86° |
| 2026-04-16 12:00 | 30.98399 | 106.27582 | 35100 ft | 460 kts | 86° |
| 2026-04-16 12:01 | 30.98823 | 106.34976 | 35100 ft | 460 kts | 86° |
| 2026-04-16 12:01 | 30.99250 | 106.42419 | 35100 ft | 461 kts | 86° |
| 2026-04-16 12:02 | 30.99881 | 106.53596 | 35100 ft | 461 kts | 86° |
| 2026-04-16 12:02 | 31.00296 | 106.61042 | 35100 ft | 461 kts | 86° |
| 2026-04-16 12:03 | 31.00706 | 106.68496 | 35100 ft | 461 kts | 86° |
| 2026-04-16 12:03 | 31.01109 | 106.75892 | 35100 ft | 460 kts | 86° |
| 2026-04-16 12:04 | 31.01511 | 106.83345 | 35100 ft | 460 kts | 86° |
| 2026-04-16 12:04 | 31.01908 | 106.90795 | 35100 ft | 460 kts | 86° |
| 2026-04-16 12:05 | 31.02299 | 106.98241 | 35100 ft | 460 kts | 87° |
| 2026-04-16 12:05 | 31.02662 | 107.05642 | 35100 ft | 460 kts | 87° |
| 2026-04-16 12:06 | 31.03032 | 107.13092 | 35100 ft | 460 kts | 87° |
| 2026-04-16 12:06 | 31.03409 | 107.20543 | 35100 ft | 460 kts | 87° |
| 2026-04-16 12:07 | 31.03785 | 107.27994 | 35100 ft | 460 kts | 87° |
| 2026-04-16 12:07 | 31.04157 | 107.35449 | 35100 ft | 460 kts | 87° |
| 2026-04-16 12:08 | 31.04513 | 107.42852 | 35100 ft | 460 kts | 87° |
| 2026-04-16 12:08 | 31.04771 | 107.50308 | 35100 ft | 460 kts | 88° |
| 2026-04-16 12:09 | 31.04942 | 107.57772 | 35100 ft | 460 kts | 89° |
| 2026-04-16 12:09 | 31.05086 | 107.65234 | 35100 ft | 460 kts | 89° |
| 2026-04-16 12:10 | 31.05225 | 107.72644 | 35100 ft | 460 kts | 89° |
| 2026-04-16 12:10 | 31.05366 | 107.80106 | 35100 ft | 460 kts | 89° |
| 2026-04-16 12:11 | 31.05505 | 107.87572 | 35100 ft | 460 kts | 89° |
| 2026-04-16 12:11 | 31.05641 | 107.95034 | 35100 ft | 460 kts | 89° |
| 2026-04-16 12:12 | 31.05771 | 108.02445 | 35100 ft | 460 kts | 89° |
| 2026-04-16 12:12 | 31.05899 | 108.09906 | 35100 ft | 460 kts | 89° |
| 2026-04-16 12:13 | 31.06021 | 108.17374 | 35100 ft | 460 kts | 89° |
| 2026-04-16 12:13 | 31.06140 | 108.24836 | 35100 ft | 460 kts | 89° |
| 2026-04-16 12:14 | 31.06253 | 108.32248 | 35101 ft | 460 kts | 89° |
| 2026-04-16 12:14 | 31.06363 | 108.39714 | 35100 ft | 460 kts | 89° |
| 2026-04-16 12:15 | 31.06469 | 108.47176 | 35100 ft | 460 kts | 89° |
| 2026-04-16 12:15 | 31.06570 | 108.54639 | 35100 ft | 460 kts | 89° |
| 2026-04-16 12:16 | 31.06667 | 108.62103 | 35100 ft | 460 kts | 89° |
| 2026-04-16 12:16 | 31.06740 | 108.69518 | 35100 ft | 460 kts | 90° |
| 2026-04-16 12:17 | 31.06810 | 108.76985 | 35099 ft | 460 kts | 89° |
| 2026-04-16 12:17 | 31.06889 | 108.84449 | 35100 ft | 460 kts | 89° |
| 2026-04-16 12:18 | 31.06968 | 108.91912 | 35100 ft | 460 kts | 89° |
| 2026-04-16 12:18 | 31.07044 | 108.99326 | 35101 ft | 460 kts | 89° |
| 2026-04-16 12:19 | 31.07115 | 109.06790 | 35100 ft | 460 kts | 89° |
| 2026-04-16 12:19 | 31.07182 | 109.14258 | 35100 ft | 460 kts | 90° |
| 2026-04-16 12:20 | 31.07244 | 109.21723 | 35100 ft | 460 kts | 90° |
| 2026-04-16 12:20 | 31.07302 | 109.29139 | 35099 ft | 460 kts | 90° |
| 2026-04-16 12:21 | 31.07356 | 109.36603 | 35100 ft | 460 kts | 90° |
| 2026-04-16 12:21 | 31.07405 | 109.44069 | 35100 ft | 460 kts | 90° |
| 2026-04-16 12:22 | 31.07450 | 109.51535 | 35101 ft | 460 kts | 90° |
| 2026-04-16 12:22 | 31.07491 | 109.58950 | 35100 ft | 460 kts | 90° |
| 2026-04-16 12:23 | 31.07509 | 109.66411 | 35100 ft | 460 kts | 90° |
| 2026-04-16 12:23 | 31.06761 | 109.73785 | 35101 ft | 459 kts | 105° |
| 2026-04-16 12:24 | 31.04799 | 109.80863 | 35101 ft | 459 kts | 110° |
| 2026-04-16 12:24 | 31.02697 | 109.87836 | 35100 ft | 459 kts | 109° |
| 2026-04-16 12:25 | 31.00653 | 109.94900 | 35100 ft | 460 kts | 109° |
| 2026-04-16 12:25 | 30.98650 | 110.01984 | 35099 ft | 460 kts | 108° |
| 2026-04-16 12:26 | 30.96655 | 110.09064 | 35100 ft | 460 kts | 108° |
| 2026-04-16 12:26 | 30.94656 | 110.16138 | 35101 ft | 459 kts | 108° |
| 2026-04-16 12:27 | 30.92666 | 110.23157 | 35100 ft | 460 kts | 108° |
| 2026-04-16 12:27 | 30.90659 | 110.30221 | 35100 ft | 460 kts | 108° |
| 2026-04-16 12:28 | 30.88646 | 110.37286 | 35100 ft | 460 kts | 109° |
| 2026-04-16 12:28 | 30.86631 | 110.44341 | 35100 ft | 460 kts | 109° |
| 2026-04-16 12:29 | 30.84624 | 110.51351 | 35100 ft | 460 kts | 109° |
| 2026-04-16 12:29 | 30.82600 | 110.58406 | 35100 ft | 460 kts | 109° |
| 2026-04-16 12:30 | 30.80566 | 110.65453 | 35101 ft | 460 kts | 109° |
| 2026-04-16 12:30 | 30.78514 | 110.72494 | 35100 ft | 459 kts | 109° |
| 2026-04-16 12:31 | 30.76471 | 110.79531 | 35100 ft | 460 kts | 109° |
| 2026-04-16 12:31 | 30.74443 | 110.86527 | 35100 ft | 460 kts | 109° |
| 2026-04-16 12:32 | 30.72402 | 110.93565 | 35100 ft | 460 kts | 109° |
| 2026-04-16 12:32 | 30.70356 | 111.00598 | 35100 ft | 460 kts | 109° |
| 2026-04-16 12:33 | 30.68306 | 111.07629 | 35100 ft | 460 kts | 109° |
| 2026-04-16 12:33 | 30.66265 | 111.14613 | 35100 ft | 460 kts | 109° |
| 2026-04-16 12:34 | 30.64207 | 111.21640 | 35100 ft | 459 kts | 109° |
| 2026-04-16 12:34 | 30.62749 | 111.28833 | 35097 ft | 459 kts | 92° |
| 2026-04-16 12:35 | 30.63354 | 111.36195 | 35101 ft | 459 kts | 80° |
| 2026-04-16 12:35 | 30.64521 | 111.43441 | 35100 ft | 460 kts | 80° |
| 2026-04-16 12:36 | 30.65436 | 111.50794 | 35100 ft | 461 kts | 85° |
| 2026-04-16 12:36 | 30.65863 | 111.58219 | 35100 ft | 461 kts | 87° |
| 2026-04-16 12:37 | 30.66199 | 111.65659 | 35100 ft | 461 kts | 87° |
| 2026-04-16 12:37 | 30.66554 | 111.73081 | 35100 ft | 460 kts | 87° |
| 2026-04-16 12:38 | 30.66925 | 111.80454 | 35100 ft | 460 kts | 87° |
| 2026-04-16 12:38 | 30.67302 | 111.87878 | 35100 ft | 460 kts | 87° |
| 2026-04-16 12:39 | 30.67679 | 111.95301 | 35100 ft | 460 kts | 86° |
| 2026-04-16 12:39 | 30.68145 | 112.02716 | 35100 ft | 460 kts | 85° |
| 2026-04-16 12:40 | 30.68662 | 112.10132 | 35100 ft | 460 kts | 85° |
| 2026-04-16 12:40 | 30.69173 | 112.17495 | 35100 ft | 460 kts | 85° |
| 2026-04-16 12:41 | 30.69679 | 112.24912 | 35100 ft | 460 kts | 85° |
| 2026-04-16 12:41 | 30.70178 | 112.32324 | 35100 ft | 460 kts | 85° |
| 2026-04-16 12:42 | 30.70673 | 112.39743 | 35100 ft | 460 kts | 86° |
| 2026-04-16 12:42 | 30.71160 | 112.47109 | 35100 ft | 460 kts | 86° |
| 2026-04-16 12:43 | 30.71646 | 112.54528 | 35100 ft | 460 kts | 86° |
| 2026-04-16 12:43 | 30.72128 | 112.61947 | 35100 ft | 460 kts | 86° |
| 2026-04-16 12:44 | 30.72606 | 112.69368 | 35100 ft | 460 kts | 86° |
| 2026-04-16 12:44 | 30.73077 | 112.76738 | 35100 ft | 460 kts | 86° |
| 2026-04-16 12:45 | 30.73546 | 112.84161 | 35100 ft | 460 kts | 86° |
| 2026-04-16 12:45 | 30.74010 | 112.91582 | 35100 ft | 460 kts | 86° |
| 2026-04-16 12:46 | 30.74449 | 112.99008 | 35100 ft | 460 kts | 86° |
| 2026-04-16 12:46 | 30.74888 | 113.06379 | 35100 ft | 460 kts | 86° |
| 2026-04-16 12:47 | 30.75323 | 113.13806 | 35100 ft | 460 kts | 87° |
| 2026-04-16 12:47 | 30.75577 | 113.21242 | 35180 ft | 460 kts | 88° |
| 2026-04-16 12:48 | 30.75668 | 113.24957 | 35307 ft | 460 kts | 89° |
| 2026-04-16 12:48 | 30.75756 | 113.28676 | 35433 ft | 460 kts | 89° |
| 2026-04-16 12:48 | 30.75843 | 113.32344 | 35556 ft | 460 kts | 89° |
| 2026-04-16 12:48 | 30.75934 | 113.36059 | 35681 ft | 460 kts | 88° |
| 2026-04-16 12:49 | 30.76027 | 113.39774 | 35805 ft | 459 kts | 88° |
| 2026-04-16 12:49 | 30.76120 | 113.43480 | 35930 ft | 459 kts | 88° |
| 2026-04-16 12:49 | 30.76212 | 113.47186 | 36053 ft | 458 kts | 88° |
| 2026-04-16 12:49 | 30.76304 | 113.50886 | 36177 ft | 458 kts | 89° |
| 2026-04-16 12:50 | 30.76394 | 113.54584 | 36301 ft | 457 kts | 89° |
| 2026-04-16 12:50 | 30.76483 | 113.58271 | 36425 ft | 456 kts | 89° |
| 2026-04-16 12:50 | 30.76571 | 113.61952 | 36548 ft | 455 kts | 89° |
| 2026-04-16 12:50 | 30.76656 | 113.65578 | 36671 ft | 454 kts | 89° |
| 2026-04-16 12:51 | 30.76742 | 113.69247 | 36794 ft | 453 kts | 89° |
| 2026-04-16 12:51 | 30.76826 | 113.72908 | 36918 ft | 452 kts | 89° |
| 2026-04-16 12:51 | 30.76909 | 113.76557 | 37042 ft | 451 kts | 89° |
| 2026-04-16 12:51 | 30.76990 | 113.80201 | 37165 ft | 450 kts | 89° |
| 2026-04-16 12:52 | 30.77071 | 113.83833 | 37304 ft | 448 kts | 89° |
| 2026-04-16 12:52 | 30.77150 | 113.87473 | 37222 ft | 452 kts | 89° |
| 2026-04-16 12:52 | 30.77229 | 113.91145 | 37100 ft | 456 kts | 89° |
| 2026-04-16 12:52 | 30.77307 | 113.94789 | 37073 ft | 458 kts | 89° |
| 2026-04-16 12:53 | 30.77476 | 114.02206 | 37074 ft | 460 kts | 88° |
| 2026-04-16 12:53 | 30.77742 | 114.09638 | 37074 ft | 460 kts | 88° |
| 2026-04-16 12:54 | 30.78052 | 114.17065 | 37072 ft | 459 kts | 86° |
| 2026-04-16 12:54 | 30.79282 | 114.24317 | 37070 ft | 459 kts | 71° |
| 2026-04-16 12:55 | 30.81579 | 114.31185 | 37071 ft | 460 kts | 68° |
| 2026-04-16 12:55 | 30.83946 | 114.38045 | 36622 ft | 449 kts | 69° |
| 2026-04-16 12:56 | 30.85080 | 114.41452 | 36249 ft | 455 kts | 69° |
| 2026-04-16 12:56 | 30.86211 | 114.44913 | 35879 ft | 460 kts | 69° |
| 2026-04-16 12:56 | 30.87341 | 114.48393 | 35590 ft | 458 kts | 69° |
| 2026-04-16 12:56 | 30.88466 | 114.51861 | 35521 ft | 458 kts | 69° |
| 2026-04-16 12:57 | 30.90705 | 114.58766 | 35501 ft | 459 kts | 69° |
| 2026-04-16 12:57 | 30.92969 | 114.65746 | 35356 ft | 463 kts | 69° |
| 2026-04-16 12:58 | 30.94107 | 114.69258 | 35231 ft | 462 kts | 69° |
| 2026-04-16 12:58 | 30.95237 | 114.72752 | 35106 ft | 461 kts | 69° |
| 2026-04-16 12:58 | 30.97490 | 114.79726 | 35099 ft | 460 kts | 69° |